createdAt,value
2018-12-12T00:00:36.486Z,5.90
2018-12-12T00:03:04.048Z,5.90
2018-12-12T00:05:31.481Z,5.90
2018-12-12T00:07:58.979Z,5.90
2018-12-12T00:10:26.413Z,5.90
2018-12-12T00:12:53.977Z,6.00
2018-12-12T00:15:21.492Z,5.90
2018-12-12T00:17:49.862Z,5.90
2018-12-12T00:20:17.352Z,6.00
2018-12-12T00:22:44.810Z,6.00
2018-12-12T00:25:12.280Z,6.00
2018-12-12T00:27:39.748Z,6.00
2018-12-12T00:30:07.424Z,6.00
2018-12-12T00:32:34.885Z,6.10
2018-12-12T00:35:02.321Z,6.00
2018-12-12T00:37:29.853Z,6.00
2018-12-12T00:39:57.284Z,6.00
2018-12-12T00:42:24.755Z,6.00
2018-12-12T00:44:52.190Z,5.90
2018-12-12T00:47:19.720Z,5.90
2018-12-12T00:49:47.152Z,5.90
2018-12-12T00:52:14.609Z,5.90
2018-12-12T00:54:42.209Z,5.90
2018-12-12T00:57:09.674Z,5.90
2018-12-12T00:59:37.099Z,5.90
2018-12-12T01:02:04.630Z,5.90
2018-12-12T01:04:32.092Z,5.90
2018-12-12T01:06:59.618Z,5.90
2018-12-12T01:09:27.062Z,5.90
2018-12-12T01:12:01.629Z,5.90
2018-12-12T01:14:29.232Z,5.90
2018-12-12T01:16:56.800Z,6.00
2018-12-12T01:19:24.228Z,6.00
2018-12-12T01:21:51.764Z,6.00
2018-12-12T01:24:19.201Z,6.00
2018-12-12T01:26:46.665Z,6.00
2018-12-12T01:29:14.103Z,6.00
2018-12-12T01:31:41.576Z,6.10
2018-12-12T01:34:09.064Z,6.10
2018-12-12T01:36:36.575Z,6.10
2018-12-12T01:39:06.745Z,6.10
2018-12-12T01:41:34.395Z,6.10
2018-12-12T01:44:01.900Z,6.10
2018-12-12T01:46:29.426Z,6.10
2018-12-12T01:48:56.852Z,6.10
2018-12-12T01:51:24.400Z,6.10
2018-12-12T01:53:51.818Z,6.10
2018-12-12T01:56:19.338Z,6.10
2018-12-12T01:58:46.769Z,6.10
2018-12-12T02:01:14.368Z,6.10
2018-12-12T02:03:41.983Z,6.10
2018-12-12T02:06:09.413Z,6.10
2018-12-12T02:08:37.080Z,6.20
2018-12-12T02:11:04.509Z,6.10
2018-12-12T02:13:35.207Z,6.10
2018-12-12T02:16:04.849Z,6.10
2018-12-12T02:18:33.190Z,6.10
2018-12-12T02:21:00.792Z,6.10
2018-12-12T02:23:28.259Z,6.00
2018-12-12T02:25:55.726Z,6.00
2018-12-12T02:28:23.179Z,6.00
2018-12-12T02:30:50.985Z,6.00
2018-12-12T02:33:18.463Z,6.00
2018-12-12T02:35:46.269Z,6.00
2018-12-12T02:38:13.733Z,6.00
2018-12-12T02:40:41.201Z,6.00
2018-12-12T02:43:08.647Z,6.00
2018-12-12T02:45:36.202Z,6.00
2018-12-12T02:48:03.844Z,6.10
2018-12-12T02:50:31.349Z,6.00
2018-12-12T02:52:58.813Z,6.00
2018-12-12T02:55:26.252Z,6.10
2018-12-12T02:57:53.709Z,6.10
2018-12-12T03:00:21.253Z,6.10
2018-12-12T03:02:48.713Z,6.10
2018-12-12T03:05:16.146Z,6.10
2018-12-12T03:07:43.613Z,6.10
2018-12-12T03:10:11.065Z,6.10
2018-12-12T03:12:38.578Z,6.10
2018-12-12T03:15:06.398Z,6.10
2018-12-12T03:17:34.183Z,6.20
2018-12-12T03:20:01.625Z,6.10
2018-12-12T03:22:29.235Z,6.10
2018-12-12T03:24:56.765Z,6.10
2018-12-12T03:27:24.233Z,6.20
2018-12-12T03:29:51.713Z,6.20
2018-12-12T03:32:19.184Z,6.20
2018-12-12T03:34:46.621Z,6.20
2018-12-12T03:37:14.112Z,6.20
2018-12-12T03:39:41.524Z,6.20
2018-12-12T03:42:08.985Z,6.20
2018-12-12T03:44:36.417Z,6.30
2018-12-12T03:47:03.890Z,6.20
2018-12-12T03:49:31.328Z,6.30
2018-12-12T03:51:58.792Z,6.20
2018-12-12T03:54:26.216Z,6.20
2018-12-12T03:56:53.703Z,6.30
2018-12-12T03:59:21.224Z,6.30
2018-12-12T04:01:48.685Z,6.30
2018-12-12T04:04:16.121Z,6.30
2018-12-12T04:06:43.573Z,6.20
2018-12-12T04:09:11.016Z,6.20
2018-12-12T04:11:38.517Z,6.30
2018-12-12T04:14:05.949Z,6.30
2018-12-12T04:16:33.536Z,6.30
2018-12-12T04:19:01.046Z,6.30
2018-12-12T04:21:28.528Z,6.30
2018-12-12T04:23:56.001Z,6.30
2018-12-12T04:26:23.652Z,6.30
2018-12-12T04:28:51.317Z,6.30
2018-12-12T04:31:18.794Z,6.20
2018-12-12T04:33:46.289Z,6.20
2018-12-12T04:36:13.728Z,6.20
2018-12-12T04:38:41.188Z,6.20
2018-12-12T04:41:08.733Z,6.20
2018-12-12T04:43:36.227Z,6.20
2018-12-12T04:46:03.652Z,6.20
2018-12-12T04:48:31.121Z,6.20
2018-12-12T04:50:58.561Z,6.10
2018-12-12T04:53:26.122Z,6.10
2018-12-12T04:55:53.649Z,6.10
2018-12-12T04:58:21.377Z,6.10
2018-12-12T05:00:48.966Z,6.00
2018-12-12T05:03:16.833Z,6.00
2018-12-12T05:05:44.284Z,6.00
2018-12-12T05:08:11.893Z,6.00
2018-12-12T05:10:39.400Z,6.00
2018-12-12T05:13:06.819Z,6.00
2018-12-12T05:15:34.291Z,5.90
2018-12-12T05:18:01.760Z,5.90
2018-12-12T05:20:29.334Z,5.90
2018-12-12T05:22:56.791Z,5.90
2018-12-12T05:25:24.230Z,5.90
2018-12-12T05:27:51.705Z,5.90
2018-12-12T05:30:19.140Z,5.90
2018-12-12T05:32:46.601Z,5.80
2018-12-12T05:35:14.052Z,5.90
2018-12-12T05:37:49.463Z,5.90
2018-12-12T05:40:12.537Z,5.80
2018-12-12T05:42:40.164Z,5.80
2018-12-12T05:45:07.685Z,5.90
2018-12-12T05:47:35.139Z,5.90
2018-12-12T05:50:02.906Z,5.90
2018-12-12T05:52:30.357Z,5.80
2018-12-12T05:54:57.796Z,5.90
2018-12-12T05:57:25.275Z,5.80
2018-12-12T05:59:52.689Z,5.80
2018-12-12T06:02:20.202Z,5.90
2018-12-12T06:04:47.628Z,5.90
2018-12-12T06:07:15.113Z,5.80
2018-12-12T06:09:42.586Z,5.80
2018-12-12T06:12:10.068Z,5.90
2018-12-12T06:14:37.600Z,5.80
2018-12-12T06:17:05.078Z,5.80
2018-12-12T06:19:32.593Z,5.90
2018-12-12T06:22:00.054Z,5.90
2018-12-12T06:24:27.501Z,5.90
2018-12-12T06:26:54.962Z,5.90
2018-12-12T06:29:22.406Z,5.90
2018-12-12T06:31:49.871Z,5.90
2018-12-12T06:34:17.352Z,5.90
2018-12-12T06:36:44.841Z,5.90
2018-12-12T06:39:12.346Z,5.90
2018-12-12T06:41:39.794Z,6.00
2018-12-12T06:44:07.229Z,6.00
2018-12-12T06:46:34.688Z,6.00
2018-12-12T06:49:02.123Z,6.00
2018-12-12T06:51:29.740Z,6.00
2018-12-12T06:53:57.472Z,6.00
2018-12-12T06:56:25.173Z,6.10
2018-12-12T06:58:52.592Z,6.00
2018-12-12T07:01:20.055Z,6.00
2018-12-12T07:03:47.527Z,6.00
2018-12-12T07:06:15.069Z,6.00
2018-12-12T07:08:42.514Z,6.00
2018-12-12T07:11:09.969Z,6.00
2018-12-12T07:13:37.402Z,6.00
2018-12-12T07:16:04.933Z,6.00
2018-12-12T07:18:32.414Z,5.90
2018-12-12T07:20:59.925Z,6.00
2018-12-12T07:23:27.373Z,6.00
2018-12-12T07:25:54.844Z,6.00
2018-12-12T07:28:22.394Z,6.00
2018-12-12T07:30:49.900Z,6.00
2018-12-12T07:33:17.409Z,6.00
2018-12-12T07:35:44.856Z,6.00
2018-12-12T07:38:12.554Z,5.90
2018-12-12T07:40:40.003Z,6.00
2018-12-12T07:43:07.483Z,6.00
2018-12-12T07:45:34.952Z,6.00
2018-12-12T07:48:02.427Z,6.00
2018-12-12T07:50:30.015Z,6.00
2018-12-12T07:52:57.477Z,6.00
2018-12-12T07:55:24.916Z,6.00
2018-12-12T07:57:52.386Z,6.10
2018-12-12T08:00:19.820Z,6.10
2018-12-12T08:02:47.297Z,6.10
2018-12-12T08:05:14.729Z,6.10
2018-12-12T08:07:42.197Z,6.10
2018-12-12T08:10:09.771Z,6.10
2018-12-12T08:12:37.257Z,6.10
2018-12-12T08:15:05.160Z,6.10
2018-12-12T08:17:32.649Z,6.10
2018-12-12T08:20:00.086Z,6.10
2018-12-12T08:22:27.569Z,6.10
2018-12-12T08:24:55.027Z,6.20
2018-12-12T08:27:22.523Z,6.20
2018-12-12T08:29:49.967Z,6.20
2018-12-12T08:32:17.521Z,6.20
2018-12-12T08:34:44.958Z,6.30
2018-12-12T08:37:12.476Z,6.20
2018-12-12T08:39:39.947Z,6.30
2018-12-12T08:42:07.420Z,6.40
2018-12-12T08:44:34.858Z,6.40
2018-12-12T08:47:02.358Z,6.40
2018-12-12T08:49:29.824Z,6.40
2018-12-12T08:51:57.253Z,6.40
2018-12-12T08:54:24.721Z,6.40
2018-12-12T08:56:52.822Z,6.50
2018-12-12T08:59:20.282Z,6.50
2018-12-12T09:01:47.748Z,6.40
2018-12-12T09:04:15.209Z,6.40
2018-12-12T09:06:42.651Z,6.50
2018-12-12T09:09:10.111Z,6.50
2018-12-12T09:11:37.620Z,6.50
2018-12-12T09:14:05.073Z,6.50
2018-12-12T09:16:32.522Z,6.60
2018-12-12T09:18:59.985Z,6.60
2018-12-12T09:21:27.441Z,6.70
2018-12-12T09:23:55.016Z,6.70
2018-12-12T09:26:22.454Z,6.70
2018-12-12T09:28:49.929Z,6.70
2018-12-12T09:31:17.516Z,6.80
2018-12-12T09:33:45.109Z,6.80
2018-12-12T09:36:12.693Z,6.80
2018-12-12T09:38:40.156Z,6.80
2018-12-12T09:41:07.593Z,6.90
2018-12-12T09:43:35.058Z,6.90
2018-12-12T09:46:02.492Z,6.90
2018-12-12T09:48:29.972Z,7.00
2018-12-12T09:50:57.404Z,7.00
2018-12-12T09:53:24.945Z,7.00
2018-12-12T09:55:52.371Z,7.00
2018-12-12T09:58:19.924Z,7.10
2018-12-12T10:00:47.368Z,7.10
2018-12-12T10:03:14.836Z,7.10
2018-12-12T10:05:42.277Z,7.10
2018-12-12T10:08:09.711Z,7.10
2018-12-12T10:10:37.180Z,7.10
2018-12-12T10:13:04.617Z,7.10
2018-12-12T10:15:32.137Z,7.20
2018-12-12T10:17:59.566Z,7.20
2018-12-12T10:20:27.033Z,7.20
2018-12-12T10:22:54.470Z,7.20
2018-12-12T10:25:22.045Z,7.20
2018-12-12T10:27:49.485Z,7.20
2018-12-12T10:30:16.949Z,7.30
2018-12-12T10:32:44.395Z,7.30
2018-12-12T10:35:11.883Z,7.30
2018-12-12T10:37:39.309Z,7.30
2018-12-12T10:40:06.909Z,7.40
2018-12-12T10:42:34.363Z,7.40
2018-12-12T10:45:01.834Z,7.50
2018-12-12T10:47:29.275Z,7.50
2018-12-12T10:49:56.734Z,7.60
2018-12-12T10:52:24.182Z,7.60
2018-12-12T10:54:51.740Z,7.70
2018-12-12T10:57:19.182Z,7.70
2018-12-12T10:59:46.626Z,7.80
2018-12-12T11:02:19.877Z,7.80
2018-12-12T11:04:47.310Z,7.80
2018-12-12T11:07:14.776Z,7.80
2018-12-12T11:09:42.230Z,7.80
2018-12-12T11:12:09.695Z,7.80
2018-12-12T11:14:37.132Z,7.90
2018-12-12T11:17:04.585Z,7.90
2018-12-12T11:19:32.022Z,8.00
2018-12-12T11:21:59.535Z,8.00
2018-12-12T11:24:26.978Z,8.00
2018-12-12T11:26:54.896Z,8.00
2018-12-12T11:29:22.334Z,8.00
2018-12-12T11:31:49.801Z,8.00
2018-12-12T11:34:17.240Z,8.10
2018-12-12T11:36:44.709Z,8.10
2018-12-12T11:39:12.273Z,8.10
2018-12-12T11:41:39.732Z,8.10
2018-12-12T11:44:07.165Z,8.10
2018-12-12T11:46:34.649Z,8.10
2018-12-12T11:49:02.114Z,8.10
2018-12-12T11:51:29.577Z,8.10
2018-12-12T11:53:57.023Z,8.10
2018-12-12T11:56:24.616Z,8.10
2018-12-12T11:58:52.061Z,8.10
2018-12-12T12:01:19.562Z,8.00
2018-12-12T12:03:46.993Z,8.00
2018-12-12T12:06:14.455Z,8.00
2018-12-12T12:08:41.885Z,8.00
2018-12-12T12:11:09.350Z,8.00
2018-12-12T12:13:36.865Z,8.00
2018-12-12T12:16:04.362Z,8.00
2018-12-12T12:18:31.797Z,8.10
2018-12-12T12:20:59.287Z,8.10
2018-12-12T12:23:26.723Z,8.20
2018-12-12T12:25:54.278Z,8.40
2018-12-12T12:28:21.789Z,8.50
2018-12-12T12:30:49.255Z,8.70
2018-12-12T12:33:16.695Z,8.90
2018-12-12T12:35:44.160Z,9.10
2018-12-12T12:38:11.601Z,9.40
2018-12-12T12:40:39.058Z,9.60
2018-12-12T12:43:06.496Z,9.80
2018-12-12T12:45:33.971Z,10.00
2018-12-12T12:48:01.411Z,10.20
2018-12-12T12:50:28.877Z,10.30
2018-12-12T12:52:56.318Z,10.30
2018-12-12T12:55:23.794Z,10.30
2018-12-12T12:57:51.236Z,10.20
2018-12-12T13:00:18.765Z,10.10
2018-12-12T13:02:46.207Z,10.30
2018-12-12T13:05:13.757Z,10.40
2018-12-12T13:07:41.224Z,10.70
2018-12-12T13:10:11.672Z,10.90
2018-12-12T13:12:38.443Z,11.20
2018-12-12T13:15:06.145Z,11.40
2018-12-12T13:17:33.661Z,11.70
2018-12-12T13:20:01.161Z,11.90
2018-12-12T13:22:29.054Z,12.10
2018-12-12T13:24:56.608Z,12.30
2018-12-12T13:27:24.064Z,12.40
2018-12-12T13:29:51.597Z,12.50
2018-12-12T13:32:19.072Z,12.60
2018-12-12T13:34:46.526Z,12.60
2018-12-12T13:37:13.976Z,12.50
2018-12-12T13:39:41.419Z,12.30
2018-12-12T13:42:08.887Z,12.20
2018-12-12T13:44:36.321Z,12.10
2018-12-12T13:47:03.818Z,12.10
2018-12-12T13:49:31.245Z,12.00
2018-12-12T13:51:58.723Z,12.00
2018-12-12T13:54:26.158Z,11.90
2018-12-12T13:56:53.727Z,11.80
2018-12-12T13:59:21.155Z,11.80
2018-12-12T14:01:48.787Z,11.70
2018-12-12T14:04:22.576Z,11.60
2018-12-12T14:06:45.955Z,11.50
2018-12-12T14:09:13.390Z,11.50
2018-12-12T14:11:40.853Z,11.50
2018-12-12T14:14:08.301Z,11.40
2018-12-12T14:16:35.790Z,11.30
2018-12-12T14:19:03.296Z,11.10
2018-12-12T14:21:30.826Z,10.90
2018-12-12T14:23:58.266Z,10.80
2018-12-12T14:26:25.724Z,10.70
2018-12-12T14:28:53.158Z,10.70
2018-12-12T14:31:20.726Z,10.80
2018-12-12T14:33:48.184Z,10.90
2018-12-12T14:36:15.695Z,11.00
2018-12-12T14:38:43.456Z,11.00
2018-12-12T14:41:10.920Z,11.00
2018-12-12T14:43:38.360Z,10.90
2018-12-12T14:46:05.910Z,10.80
2018-12-12T14:48:33.367Z,10.70
2018-12-12T14:51:00.829Z,10.60
2018-12-12T14:53:28.282Z,10.50
2018-12-12T14:55:55.739Z,10.50
2018-12-12T14:58:23.187Z,10.30
2018-12-12T15:00:50.661Z,10.20
2018-12-12T15:03:18.122Z,10.10
2018-12-12T15:05:45.570Z,10.00
2018-12-12T15:08:13.027Z,9.80
2018-12-12T15:10:40.449Z,9.70
2018-12-12T15:13:07.906Z,9.50
2018-12-12T15:15:35.453Z,9.40
2018-12-12T15:18:02.909Z,9.20
2018-12-12T15:20:30.454Z,9.20
2018-12-12T15:22:57.950Z,9.10
2018-12-12T15:25:25.469Z,9.00
2018-12-12T15:27:52.926Z,8.90
2018-12-12T15:30:20.401Z,8.80
2018-12-12T15:32:48.026Z,8.70
2018-12-12T15:35:15.470Z,8.60
2018-12-12T15:37:42.933Z,8.60
2018-12-12T15:40:10.367Z,8.50
2018-12-12T15:42:37.869Z,8.50
2018-12-12T15:45:06.436Z,8.40
2018-12-12T15:47:33.902Z,8.30
2018-12-12T15:50:01.401Z,8.20
2018-12-12T15:52:29.422Z,8.10
2018-12-12T15:54:56.853Z,8.10
2018-12-12T15:57:24.337Z,8.10
2018-12-12T15:59:51.788Z,8.00
2018-12-12T16:02:19.329Z,8.00
2018-12-12T16:04:49.124Z,8.00
2018-12-12T16:07:16.245Z,8.10
2018-12-12T16:09:43.671Z,8.10
2018-12-12T16:12:11.205Z,8.10
2018-12-12T16:14:38.632Z,8.10
2018-12-12T16:17:06.093Z,8.10
2018-12-12T16:19:33.555Z,8.10
2018-12-12T16:22:01.013Z,8.10
2018-12-12T16:24:28.459Z,8.10
2018-12-12T16:26:55.930Z,8.10
2018-12-12T16:29:23.401Z,8.20
2018-12-12T16:31:50.874Z,8.10
2018-12-12T16:34:18.373Z,8.10
2018-12-12T16:36:45.849Z,8.10
2018-12-12T16:39:13.302Z,8.10
2018-12-12T16:41:40.764Z,8.10
2018-12-12T16:44:08.205Z,8.10
2018-12-12T16:46:35.698Z,8.10
2018-12-12T16:49:03.136Z,8.10
2018-12-12T16:51:30.708Z,8.10
2018-12-12T16:53:58.158Z,8.10
2018-12-12T16:56:26.517Z,8.10
2018-12-12T16:58:54.056Z,8.10
2018-12-12T17:01:21.548Z,8.10
2018-12-12T17:03:48.986Z,8.10
2018-12-12T17:06:16.470Z,8.00
2018-12-12T17:08:43.921Z,8.00
2018-12-12T17:11:11.397Z,8.00
2018-12-12T17:13:38.847Z,8.00
2018-12-12T17:16:06.297Z,8.00
2018-12-12T17:18:33.742Z,8.00
2018-12-12T17:21:01.210Z,8.00
2018-12-12T17:23:28.653Z,7.90
2018-12-12T17:25:56.094Z,7.90
2018-12-12T17:28:23.637Z,7.90
2018-12-12T17:30:51.154Z,7.90
2018-12-12T17:33:18.598Z,7.90
2018-12-12T17:35:46.162Z,7.90
2018-12-12T17:38:13.598Z,7.80
2018-12-12T17:40:41.065Z,7.80
2018-12-12T17:43:08.506Z,7.80
2018-12-12T17:45:35.985Z,7.70
2018-12-12T17:48:03.422Z,7.70
2018-12-12T17:50:30.884Z,7.60
2018-12-12T17:52:58.340Z,7.60
2018-12-12T17:55:25.788Z,7.50
2018-12-12T17:57:53.278Z,7.40
2018-12-12T18:00:20.706Z,7.40
2018-12-12T18:02:48.165Z,7.40
2018-12-12T18:05:15.674Z,7.30
2018-12-12T18:07:43.203Z,7.30
2018-12-12T18:10:10.645Z,7.30
2018-12-12T18:12:38.122Z,7.30
2018-12-12T18:15:05.725Z,7.30
2018-12-12T18:17:33.194Z,7.20
2018-12-12T18:20:00.642Z,7.20
2018-12-12T18:22:28.113Z,7.10
2018-12-12T18:24:55.590Z,7.10
2018-12-12T18:27:23.049Z,7.10
2018-12-12T18:29:50.502Z,7.00
2018-12-12T18:32:17.985Z,7.00
2018-12-12T18:34:45.405Z,6.90
2018-12-12T18:37:12.871Z,6.90
2018-12-12T18:39:40.297Z,6.90
2018-12-12T18:42:07.765Z,6.90
2018-12-12T18:44:35.206Z,6.90
2018-12-12T18:47:02.673Z,6.90
2018-12-12T18:49:30.114Z,6.90
2018-12-12T18:51:58.320Z,6.90
2018-12-12T18:54:25.916Z,6.90
2018-12-12T18:56:53.413Z,6.90
2018-12-12T18:59:20.881Z,6.90
2018-12-12T19:01:48.475Z,6.80
2018-12-12T19:04:15.943Z,6.80
2018-12-12T19:06:43.441Z,6.70
2018-12-12T19:09:10.867Z,6.70
2018-12-12T19:11:44.180Z,6.60
2018-12-12T19:14:07.973Z,6.60
2018-12-12T19:16:35.566Z,6.60
2018-12-12T19:19:03.023Z,6.60
2018-12-12T19:21:30.547Z,6.50
2018-12-12T19:23:58.036Z,6.50
2018-12-12T19:26:25.471Z,6.40
2018-12-12T19:28:52.935Z,6.40
2018-12-12T19:31:20.369Z,6.30
2018-12-12T19:33:47.845Z,6.20
2018-12-12T19:36:15.301Z,6.20
2018-12-12T19:38:42.840Z,6.20
2018-12-12T19:41:10.291Z,6.10
2018-12-12T19:43:37.762Z,6.20
2018-12-12T19:46:05.219Z,6.10
2018-12-12T19:48:32.704Z,6.10
2018-12-12T19:51:00.205Z,6.10
2018-12-12T19:53:28.920Z,6.10
2018-12-12T19:55:56.620Z,6.10
2018-12-12T19:58:24.076Z,6.00
2018-12-12T20:00:51.556Z,6.00
2018-12-12T20:03:19.014Z,6.00
2018-12-12T20:05:46.466Z,6.00
2018-12-12T20:08:14.085Z,6.00
2018-12-12T20:10:41.540Z,5.90
2018-12-12T20:13:09.027Z,5.90
2018-12-12T20:15:42.055Z,5.90
2018-12-12T20:18:09.546Z,5.90
2018-12-12T20:20:36.995Z,5.80
2018-12-12T20:23:04.754Z,5.80
2018-12-12T20:25:32.198Z,5.80
2018-12-12T20:27:59.642Z,5.70
2018-12-12T20:30:27.104Z,5.70
2018-12-12T20:32:54.550Z,5.70
2018-12-12T20:35:22.006Z,5.60
2018-12-12T20:37:49.442Z,5.70
2018-12-12T20:40:17.073Z,5.70
2018-12-12T20:42:44.549Z,5.60
2018-12-12T20:45:12.148Z,5.60
2018-12-12T20:47:39.604Z,5.50
2018-12-12T20:50:07.274Z,5.50
2018-12-12T20:52:34.749Z,5.50
2018-12-12T20:55:02.241Z,5.40
2018-12-12T20:57:29.713Z,5.40
2018-12-12T20:59:57.182Z,5.40
2018-12-12T21:02:24.617Z,5.30
2018-12-12T21:04:52.720Z,5.30
2018-12-12T21:07:20.160Z,5.30
2018-12-12T21:09:47.620Z,5.30
2018-12-12T21:12:15.062Z,5.30
2018-12-12T21:14:42.536Z,5.30
2018-12-12T21:17:09.978Z,5.30
2018-12-12T21:19:39.608Z,5.30
2018-12-12T21:22:07.037Z,5.30
2018-12-12T21:24:34.517Z,5.30
2018-12-12T21:27:02.118Z,5.30
2018-12-12T21:29:30.474Z,5.30
2018-12-12T21:31:58.022Z,5.30
2018-12-12T21:34:25.486Z,5.30
2018-12-12T21:36:52.922Z,5.40
2018-12-12T21:39:20.389Z,5.40
2018-12-12T21:41:47.929Z,5.40
2018-12-12T21:44:15.481Z,5.50
2018-12-12T21:46:42.993Z,5.50
2018-12-12T21:49:10.497Z,5.60
2018-12-12T21:51:38.068Z,5.60
2018-12-12T21:54:05.522Z,5.60
2018-12-12T21:56:33.028Z,5.70
2018-12-12T21:59:00.466Z,5.70
2018-12-12T22:01:27.918Z,5.80
2018-12-12T22:03:55.371Z,5.80
2018-12-12T22:06:22.817Z,5.80
2018-12-12T22:08:50.461Z,5.80
2018-12-12T22:11:17.928Z,5.80
2018-12-12T22:13:45.367Z,5.80
2018-12-12T22:16:12.840Z,5.80
2018-12-12T22:18:40.289Z,5.90
2018-12-12T22:21:07.757Z,5.80
2018-12-12T22:23:35.198Z,5.90
2018-12-12T22:26:02.661Z,5.90
2018-12-12T22:28:30.094Z,5.90
2018-12-12T22:30:57.639Z,5.90
2018-12-12T22:33:26.025Z,6.00
2018-12-12T22:35:53.492Z,6.00
2018-12-12T22:38:20.930Z,6.00
2018-12-12T22:40:48.640Z,6.00
2018-12-12T22:43:16.067Z,6.00
2018-12-12T22:45:43.526Z,6.10
2018-12-12T22:48:11.030Z,6.00
2018-12-12T22:50:38.502Z,6.00
2018-12-12T22:53:06.026Z,6.00
2018-12-12T22:55:33.477Z,5.90
2018-12-12T22:58:00.906Z,5.90
2018-12-12T23:00:35.895Z,5.90
2018-12-12T23:03:03.544Z,5.90
2018-12-12T23:05:31.061Z,5.90
2018-12-12T23:07:58.545Z,5.90
2018-12-12T23:10:25.998Z,5.90
2018-12-12T23:12:53.445Z,5.90
2018-12-12T23:15:20.915Z,5.90
2018-12-12T23:17:48.347Z,6.00
2018-12-12T23:20:15.821Z,5.90
2018-12-12T23:22:43.283Z,6.00
2018-12-12T23:25:10.773Z,6.00
2018-12-12T23:27:38.197Z,6.00
2018-12-12T23:30:07.528Z,6.00
2018-12-12T23:32:35.015Z,6.00
2018-12-12T23:35:02.476Z,6.00
2018-12-12T23:37:29.902Z,6.00
2018-12-12T23:39:57.366Z,6.00
2018-12-12T23:42:24.803Z,6.10
2018-12-12T23:44:52.269Z,6.00
2018-12-12T23:47:19.710Z,6.00
2018-12-12T23:49:47.197Z,6.10
2018-12-12T23:52:14.625Z,6.10
2018-12-12T23:54:42.081Z,6.10
2018-12-12T23:57:09.513Z,6.10
2018-12-12T23:59:36.960Z,6.00
